sensor_id;sensor_type;location;lat;lon;timestamp;P1;durP1;ratioP1;P2;durP2;ratioP2
13685;SDS011;6915;48.296;8.874;2022-08-21T00:00:54;2.43;;;1.87;;
13685;SDS011;6915;48.296;8.874;2022-08-21T00:03:21;2.30;;;1.70;;
13685;SDS011;6915;48.296;8.874;2022-08-21T00:05:49;1.93;;;1.50;;
13685;SDS011;6915;48.296;8.874;2022-08-21T00:08:17;2.20;;;1.60;;
13685;SDS011;6915;48.296;8.874;2022-08-21T00:10:46;1.67;;;1.57;;
13685;SDS011;6915;48.296;8.874;2022-08-21T00:13:13;1.43;;;1.37;;
13685;SDS011;6915;48.296;8.874;2022-08-21T00:15:41;3.10;;;1.60;;
13685;SDS011;6915;48.296;8.874;2022-08-21T00:18:09;1.57;;;1.47;;
13685;SDS011;6915;48.296;8.874;2022-08-21T00:20:37;1.77;;;1.60;;
13685;SDS011;6915;48.296;8.874;2022-08-21T00:23:06;3.33;;;1.60;;
13685;SDS011;6915;48.296;8.874;2022-08-21T00:25:33;3.80;;;1.93;;
13685;SDS011;6915;48.296;8.874;2022-08-21T00:28:02;2.00;;;1.80;;
13685;SDS011;6915;48.296;8.874;2022-08-21T00:30:30;1.80;;;1.70;;
13685;SDS011;6915;48.296;8.874;2022-08-21T00:32:57;2.37;;;1.70;;
13685;SDS011;6915;48.296;8.874;2022-08-21T00:35:25;1.87;;;1.77;;
13685;SDS011;6915;48.296;8.874;2022-08-21T00:37:54;2.43;;;1.73;;
13685;SDS011;6915;48.296;8.874;2022-08-21T00:40:22;2.57;;;1.67;;
13685;SDS011;6915;48.296;8.874;2022-08-21T00:42:51;1.70;;;1.60;;
13685;SDS011;6915;48.296;8.874;2022-08-21T00:45:19;1.77;;;1.63;;
13685;SDS011;6915;48.296;8.874;2022-08-21T00:47:46;1.70;;;1.60;;
13685;SDS011;6915;48.296;8.874;2022-08-21T00:50:13;1.90;;;1.80;;
13685;SDS011;6915;48.296;8.874;2022-08-21T00:52:41;1.67;;;1.57;;
13685;SDS011;6915;48.296;8.874;2022-08-21T00:55:08;1.60;;;1.50;;
13685;SDS011;6915;48.296;8.874;2022-08-21T00:57:38;2.33;;;1.60;;
13685;SDS011;6915;48.296;8.874;2022-08-21T01:00:09;1.97;;;1.60;;
13685;SDS011;6915;48.296;8.874;2022-08-21T01:02:39;1.77;;;1.67;;
13685;SDS011;6915;48.296;8.874;2022-08-21T01:05:07;2.23;;;1.80;;
13685;SDS011;6915;48.296;8.874;2022-08-21T01:07:34;2.63;;;1.63;;
13685;SDS011;6915;48.296;8.874;2022-08-21T01:10:02;3.30;;;1.70;;
13685;SDS011;6915;48.296;8.874;2022-08-21T01:12:29;2.23;;;1.60;;
13685;SDS011;6915;48.296;8.874;2022-08-21T01:14:57;1.67;;;1.57;;
13685;SDS011;6915;48.296;8.874;2022-08-21T01:17:24;3.37;;;1.50;;
13685;SDS011;6915;48.296;8.874;2022-08-21T01:19:54;1.70;;;1.60;;
13685;SDS011;6915;48.296;8.874;2022-08-21T01:22:25;3.63;;;1.80;;
13685;SDS011;6915;48.296;8.874;2022-08-21T01:24:53;2.57;;;1.60;;
13685;SDS011;6915;48.296;8.874;2022-08-21T01:27:19;2.90;;;1.67;;
13685;SDS011;6915;48.296;8.874;2022-08-21T01:29:48;1.77;;;1.60;;
13685;SDS011;6915;48.296;8.874;2022-08-21T01:32:20;2.03;;;1.60;;
13685;SDS011;6915;48.296;8.874;2022-08-21T01:34:48;2.97;;;1.60;;
13685;SDS011;6915;48.296;8.874;2022-08-21T01:37:17;2.40;;;1.33;;
13685;SDS011;6915;48.296;8.874;2022-08-21T01:39:46;1.60;;;1.50;;
13685;SDS011;6915;48.296;8.874;2022-08-21T01:42:14;1.80;;;1.70;;
13685;SDS011;6915;48.296;8.874;2022-08-21T01:44:42;2.30;;;1.63;;
13685;SDS011;6915;48.296;8.874;2022-08-21T01:47:11;3.63;;;1.50;;
13685;SDS011;6915;48.296;8.874;2022-08-21T01:49:39;3.70;;;1.40;;
13685;SDS011;6915;48.296;8.874;2022-08-21T01:52:07;3.00;;;2.03;;
13685;SDS011;6915;48.296;8.874;2022-08-21T01:54:34;1.60;;;1.40;;
13685;SDS011;6915;48.296;8.874;2022-08-21T01:57:03;2.80;;;1.67;;
13685;SDS011;6915;48.296;8.874;2022-08-21T01:59:31;2.37;;;1.40;;
13685;SDS011;6915;48.296;8.874;2022-08-21T02:01:58;1.73;;;1.60;;
13685;SDS011;6915;48.296;8.874;2022-08-21T02:04:25;3.17;;;1.60;;
13685;SDS011;6915;48.296;8.874;2022-08-21T02:06:52;2.20;;;1.70;;
13685;SDS011;6915;48.296;8.874;2022-08-21T02:09:19;3.40;;;1.97;;
13685;SDS011;6915;48.296;8.874;2022-08-21T02:11:47;1.73;;;1.63;;
13685;SDS011;6915;48.296;8.874;2022-08-21T02:14:15;2.67;;;1.53;;
13685;SDS011;6915;48.296;8.874;2022-08-21T02:16:43;1.83;;;1.60;;
13685;SDS011;6915;48.296;8.874;2022-08-21T02:19:12;2.77;;;1.60;;
13685;SDS011;6915;48.296;8.874;2022-08-21T02:21:41;2.13;;;1.33;;
13685;SDS011;6915;48.296;8.874;2022-08-21T02:24:10;6.93;;;2.00;;
13685;SDS011;6915;48.296;8.874;2022-08-21T02:26:37;3.37;;;1.50;;
13685;SDS011;6915;48.296;8.874;2022-08-21T02:29:04;5.43;;;1.50;;
13685;SDS011;6915;48.296;8.874;2022-08-21T02:31:33;1.80;;;1.70;;
13685;SDS011;6915;48.296;8.874;2022-08-21T02:34:00;1.87;;;1.77;;
13685;SDS011;6915;48.296;8.874;2022-08-21T02:36:27;4.93;;;1.90;;
13685;SDS011;6915;48.296;8.874;2022-08-21T02:38:54;2.97;;;1.80;;
13685;SDS011;6915;48.296;8.874;2022-08-21T02:41:21;3.27;;;1.63;;
13685;SDS011;6915;48.296;8.874;2022-08-21T02:43:48;2.97;;;1.90;;
13685;SDS011;6915;48.296;8.874;2022-08-21T02:46:16;2.53;;;1.80;;
13685;SDS011;6915;48.296;8.874;2022-08-21T02:48:46;3.50;;;1.93;;
13685;SDS011;6915;48.296;8.874;2022-08-21T02:51:15;2.50;;;1.90;;
13685;SDS011;6915;48.296;8.874;2022-08-21T02:53:45;2.00;;;1.80;;
13685;SDS011;6915;48.296;8.874;2022-08-21T02:56:13;3.90;;;2.10;;
13685;SDS011;6915;48.296;8.874;2022-08-21T02:58:44;3.73;;;1.83;;
13685;SDS011;6915;48.296;8.874;2022-08-21T03:01:12;5.53;;;2.20;;
13685;SDS011;6915;48.296;8.874;2022-08-21T03:03:41;2.43;;;2.20;;
13685;SDS011;6915;48.296;8.874;2022-08-21T03:06:12;4.20;;;2.20;;
13685;SDS011;6915;48.296;8.874;2022-08-21T03:08:40;4.03;;;1.93;;
13685;SDS011;6915;48.296;8.874;2022-08-21T03:11:10;3.60;;;2.00;;
13685;SDS011;6915;48.296;8.874;2022-08-21T03:13:38;4.83;;;2.47;;
13685;SDS011;6915;48.296;8.874;2022-08-21T03:16:05;2.10;;;1.87;;
13685;SDS011;6915;48.296;8.874;2022-08-21T03:18:32;4.70;;;1.90;;
13685;SDS011;6915;48.296;8.874;2022-08-21T03:21:00;2.67;;;1.97;;
13685;SDS011;6915;48.296;8.874;2022-08-21T03:23:29;3.60;;;2.10;;
13685;SDS011;6915;48.296;8.874;2022-08-21T03:25:57;2.00;;;1.90;;
13685;SDS011;6915;48.296;8.874;2022-08-21T03:28:24;2.93;;;1.90;;
13685;SDS011;6915;48.296;8.874;2022-08-21T03:30:51;2.63;;;1.80;;
13685;SDS011;6915;48.296;8.874;2022-08-21T03:33:19;3.60;;;2.00;;
13685;SDS011;6915;48.296;8.874;2022-08-21T03:35:47;2.03;;;1.83;;
13685;SDS011;6915;48.296;8.874;2022-08-21T03:38:21;3.23;;;2.00;;
13685;SDS011;6915;48.296;8.874;2022-08-21T03:40:49;3.57;;;1.83;;
13685;SDS011;6915;48.296;8.874;2022-08-21T03:43:16;1.73;;;1.63;;
13685;SDS011;6915;48.296;8.874;2022-08-21T03:45:43;2.10;;;1.70;;
13685;SDS011;6915;48.296;8.874;2022-08-21T03:48:10;2.53;;;1.67;;
13685;SDS011;6915;48.296;8.874;2022-08-21T03:50:38;2.40;;;1.67;;
13685;SDS011;6915;48.296;8.874;2022-08-21T03:53:06;3.10;;;1.80;;
13685;SDS011;6915;48.296;8.874;2022-08-21T03:55:34;3.77;;;1.53;;
13685;SDS011;6915;48.296;8.874;2022-08-21T03:58:02;2.80;;;1.70;;
13685;SDS011;6915;48.296;8.874;2022-08-21T04:00:30;3.70;;;1.60;;
13685;SDS011;6915;48.296;8.874;2022-08-21T04:02:57;3.23;;;1.50;;
13685;SDS011;6915;48.296;8.874;2022-08-21T04:05:24;4.13;;;1.83;;
13685;SDS011;6915;48.296;8.874;2022-08-21T04:07:55;3.43;;;1.60;;
13685;SDS011;6915;48.296;8.874;2022-08-21T04:10:23;1.87;;;1.50;;
13685;SDS011;6915;48.296;8.874;2022-08-21T04:12:51;3.90;;;1.47;;
13685;SDS011;6915;48.296;8.874;2022-08-21T04:15:20;3.63;;;1.70;;
13685;SDS011;6915;48.296;8.874;2022-08-21T04:17:48;3.67;;;1.80;;
13685;SDS011;6915;48.296;8.874;2022-08-21T04:20:15;3.47;;;1.70;;
13685;SDS011;6915;48.296;8.874;2022-08-21T04:22:43;2.60;;;1.40;;
13685;SDS011;6915;48.296;8.874;2022-08-21T04:25:10;1.90;;;1.80;;
13685;SDS011;6915;48.296;8.874;2022-08-21T04:27:37;1.67;;;1.57;;
13685;SDS011;6915;48.296;8.874;2022-08-21T04:30:05;3.67;;;1.90;;
13685;SDS011;6915;48.296;8.874;2022-08-21T04:32:35;2.23;;;1.50;;
13685;SDS011;6915;48.296;8.874;2022-08-21T04:35:03;2.47;;;1.73;;
13685;SDS011;6915;48.296;8.874;2022-08-21T04:37:33;3.50;;;1.80;;
13685;SDS011;6915;48.296;8.874;2022-08-21T04:40:00;3.53;;;1.93;;
13685;SDS011;6915;48.296;8.874;2022-08-21T04:42:28;4.30;;;1.60;;
13685;SDS011;6915;48.296;8.874;2022-08-21T04:44:55;1.87;;;1.67;;
13685;SDS011;6915;48.296;8.874;2022-08-21T04:47:22;2.03;;;1.63;;
13685;SDS011;6915;48.296;8.874;2022-08-21T04:49:51;2.40;;;1.93;;
13685;SDS011;6915;48.296;8.874;2022-08-21T04:52:19;2.00;;;1.90;;
13685;SDS011;6915;48.296;8.874;2022-08-21T04:54:49;2.50;;;1.60;;
13685;SDS011;6915;48.296;8.874;2022-08-21T04:57:17;2.67;;;1.80;;
13685;SDS011;6915;48.296;8.874;2022-08-21T04:59:46;3.90;;;2.33;;
13685;SDS011;6915;48.296;8.874;2022-08-21T05:02:15;3.90;;;2.30;;
13685;SDS011;6915;48.296;8.874;2022-08-21T05:04:46;4.70;;;1.90;;
13685;SDS011;6915;48.296;8.874;2022-08-21T05:07:18;1.83;;;1.70;;
13685;SDS011;6915;48.296;8.874;2022-08-21T05:09:48;1.43;;;1.30;;
13685;SDS011;6915;48.296;8.874;2022-08-21T05:12:15;2.13;;;1.40;;
13685;SDS011;6915;48.296;8.874;2022-08-21T05:14:42;2.07;;;1.50;;
13685;SDS011;6915;48.296;8.874;2022-08-21T05:17:09;2.13;;;1.17;;
13685;SDS011;6915;48.296;8.874;2022-08-21T05:19:36;2.07;;;1.40;;
13685;SDS011;6915;48.296;8.874;2022-08-21T05:22:03;3.83;;;1.53;;
13685;SDS011;6915;48.296;8.874;2022-08-21T05:24:32;1.30;;;1.20;;
13685;SDS011;6915;48.296;8.874;2022-08-21T05:26:59;2.37;;;1.50;;
13685;SDS011;6915;48.296;8.874;2022-08-21T05:29:26;2.53;;;1.30;;
13685;SDS011;6915;48.296;8.874;2022-08-21T05:31:56;1.40;;;1.30;;
13685;SDS011;6915;48.296;8.874;2022-08-21T05:34:23;1.70;;;1.60;;
13685;SDS011;6915;48.296;8.874;2022-08-21T05:36:50;2.87;;;1.50;;
13685;SDS011;6915;48.296;8.874;2022-08-21T05:39:17;2.33;;;1.60;;
13685;SDS011;6915;48.296;8.874;2022-08-21T05:41:45;2.60;;;1.37;;
13685;SDS011;6915;48.296;8.874;2022-08-21T05:44:12;2.30;;;1.53;;
13685;SDS011;6915;48.296;8.874;2022-08-21T05:46:39;1.97;;;1.77;;
13685;SDS011;6915;48.296;8.874;2022-08-21T05:49:06;2.07;;;1.70;;
13685;SDS011;6915;48.296;8.874;2022-08-21T05:51:33;2.27;;;1.50;;
13685;SDS011;6915;48.296;8.874;2022-08-21T05:54:00;2.13;;;1.50;;
13685;SDS011;6915;48.296;8.874;2022-08-21T05:56:27;2.57;;;1.23;;
13685;SDS011;6915;48.296;8.874;2022-08-21T05:58:55;3.50;;;1.67;;
13685;SDS011;6915;48.296;8.874;2022-08-21T06:01:23;2.77;;;2.00;;
13685;SDS011;6915;48.296;8.874;2022-08-21T06:03:50;4.37;;;2.07;;
13685;SDS011;6915;48.296;8.874;2022-08-21T06:06:17;3.47;;;2.03;;
13685;SDS011;6915;48.296;8.874;2022-08-21T06:08:44;2.43;;;1.80;;
13685;SDS011;6915;48.296;8.874;2022-08-21T06:11:11;4.30;;;1.73;;
13685;SDS011;6915;48.296;8.874;2022-08-21T06:13:38;3.50;;;1.77;;
13685;SDS011;6915;48.296;8.874;2022-08-21T06:16:08;2.23;;;1.90;;
13685;SDS011;6915;48.296;8.874;2022-08-21T06:18:37;2.57;;;1.70;;
13685;SDS011;6915;48.296;8.874;2022-08-21T06:21:05;2.60;;;1.93;;
13685;SDS011;6915;48.296;8.874;2022-08-21T06:23:32;3.20;;;2.13;;
13685;SDS011;6915;48.296;8.874;2022-08-21T06:26:00;3.30;;;1.90;;
13685;SDS011;6915;48.296;8.874;2022-08-21T06:28:27;2.30;;;1.83;;
13685;SDS011;6915;48.296;8.874;2022-08-21T06:30:55;3.53;;;1.67;;
13685;SDS011;6915;48.296;8.874;2022-08-21T06:33:23;3.17;;;2.10;;
13685;SDS011;6915;48.296;8.874;2022-08-21T06:35:50;1.57;;;1.47;;
13685;SDS011;6915;48.296;8.874;2022-08-21T06:38:17;4.43;;;2.10;;
13685;SDS011;6915;48.296;8.874;2022-08-21T06:40:44;4.50;;;2.03;;
13685;SDS011;6915;48.296;8.874;2022-08-21T06:43:13;2.60;;;2.00;;
13685;SDS011;6915;48.296;8.874;2022-08-21T06:45:42;2.87;;;1.87;;
13685;SDS011;6915;48.296;8.874;2022-08-21T06:48:09;3.17;;;2.20;;
13685;SDS011;6915;48.296;8.874;2022-08-21T06:50:37;4.07;;;2.00;;
13685;SDS011;6915;48.296;8.874;2022-08-21T06:53:05;3.80;;;2.27;;
13685;SDS011;6915;48.296;8.874;2022-08-21T06:55:34;2.40;;;2.20;;
13685;SDS011;6915;48.296;8.874;2022-08-21T06:58:01;3.23;;;2.10;;
13685;SDS011;6915;48.296;8.874;2022-08-21T07:00:29;2.80;;;2.20;;
13685;SDS011;6915;48.296;8.874;2022-08-21T07:02:56;3.73;;;1.97;;
13685;SDS011;6915;48.296;8.874;2022-08-21T07:05:24;4.22;;;2.47;;
13685;SDS011;6915;48.296;8.874;2022-08-21T07:07:53;3.75;;;2.17;;
13685;SDS011;6915;48.296;8.874;2022-08-21T07:10:21;5.70;;;2.17;;
13685;SDS011;6915;48.296;8.874;2022-08-21T07:12:48;4.70;;;2.43;;
13685;SDS011;6915;48.296;8.874;2022-08-21T07:15:15;6.00;;;2.70;;
13685;SDS011;6915;48.296;8.874;2022-08-21T07:17:43;6.80;;;2.40;;
13685;SDS011;6915;48.296;8.874;2022-08-21T07:20:10;3.40;;;2.33;;
13685;SDS011;6915;48.296;8.874;2022-08-21T07:22:37;4.33;;;2.60;;
13685;SDS011;6915;48.296;8.874;2022-08-21T07:25:07;6.03;;;2.90;;
13685;SDS011;6915;48.296;8.874;2022-08-21T07:27:34;4.55;;;2.40;;
13685;SDS011;6915;48.296;8.874;2022-08-21T07:30:01;4.18;;;2.30;;
13685;SDS011;6915;48.296;8.874;2022-08-21T07:32:28;5.53;;;2.28;;
13685;SDS011;6915;48.296;8.874;2022-08-21T07:34:55;5.68;;;2.30;;
13685;SDS011;6915;48.296;8.874;2022-08-21T07:37:22;4.40;;;2.05;;
13685;SDS011;6915;48.296;8.874;2022-08-21T07:39:50;4.50;;;2.30;;
13685;SDS011;6915;48.296;8.874;2022-08-21T07:42:18;4.30;;;2.17;;
13685;SDS011;6915;48.296;8.874;2022-08-21T07:44:45;3.00;;;2.10;;
13685;SDS011;6915;48.296;8.874;2022-08-21T07:47:12;3.72;;;2.17;;
13685;SDS011;6915;48.296;8.874;2022-08-21T07:49:39;5.63;;;2.60;;
13685;SDS011;6915;48.296;8.874;2022-08-21T07:52:06;5.55;;;2.30;;
13685;SDS011;6915;48.296;8.874;2022-08-21T07:54:35;6.22;;;2.45;;
13685;SDS011;6915;48.296;8.874;2022-08-21T07:57:42;3.95;;;2.25;;
13685;SDS011;6915;48.296;8.874;2022-08-21T08:00:11;4.95;;;2.35;;
13685;SDS011;6915;48.296;8.874;2022-08-21T08:02:40;5.78;;;2.25;;
13685;SDS011;6915;48.296;8.874;2022-08-21T08:05:11;4.22;;;2.35;;
13685;SDS011;6915;48.296;8.874;2022-08-21T08:09:16;4.93;;;2.78;;
13685;SDS011;6915;48.296;8.874;2022-08-21T08:10:53;3.60;;;2.30;;
13685;SDS011;6915;48.296;8.874;2022-08-21T08:13:24;7.45;;;2.30;;
13685;SDS011;6915;48.296;8.874;2022-08-21T08:15:51;5.85;;;2.40;;
13685;SDS011;6915;48.296;8.874;2022-08-21T08:18:18;4.63;;;2.22;;
13685;SDS011;6915;48.296;8.874;2022-08-21T08:20:45;3.28;;;2.20;;
13685;SDS011;6915;48.296;8.874;2022-08-21T08:23:13;4.15;;;2.20;;
13685;SDS011;6915;48.296;8.874;2022-08-21T08:25:41;4.68;;;2.38;;
13685;SDS011;6915;48.296;8.874;2022-08-21T08:28:08;5.28;;;2.47;;
13685;SDS011;6915;48.296;8.874;2022-08-21T08:30:36;3.45;;;2.17;;
13685;SDS011;6915;48.296;8.874;2022-08-21T08:33:03;3.70;;;2.38;;
13685;SDS011;6915;48.296;8.874;2022-08-21T08:35:30;4.43;;;2.40;;
13685;SDS011;6915;48.296;8.874;2022-08-21T08:37:57;3.95;;;2.55;;
13685;SDS011;6915;48.296;8.874;2022-08-21T08:40:25;5.72;;;2.70;;
13685;SDS011;6915;48.296;8.874;2022-08-21T08:42:59;5.82;;;2.30;;
13685;SDS011;6915;48.296;8.874;2022-08-21T08:45:26;4.45;;;2.40;;
13685;SDS011;6915;48.296;8.874;2022-08-21T08:48:00;6.43;;;2.42;;
13685;SDS011;6915;48.296;8.874;2022-08-21T08:50:33;4.15;;;2.58;;
13685;SDS011;6915;48.296;8.874;2022-08-21T08:53:08;5.70;;;2.90;;
13685;SDS011;6915;48.296;8.874;2022-08-21T08:55:39;4.50;;;2.40;;
13685;SDS011;6915;48.296;8.874;2022-08-21T08:58:09;4.78;;;2.60;;
13685;SDS011;6915;48.296;8.874;2022-08-21T09:00:42;4.43;;;2.50;;
13685;SDS011;6915;48.296;8.874;2022-08-21T09:03:13;6.28;;;2.88;;
13685;SDS011;6915;48.296;8.874;2022-08-21T09:05:43;6.45;;;2.67;;
13685;SDS011;6915;48.296;8.874;2022-08-21T09:08:17;5.75;;;2.70;;
13685;SDS011;6915;48.296;8.874;2022-08-21T09:10:55;4.05;;;2.50;;
13685;SDS011;6915;48.296;8.874;2022-08-21T09:13:38;4.53;;;2.38;;
13685;SDS011;6915;48.296;8.874;2022-08-21T09:16:15;3.85;;;2.42;;
13685;SDS011;6915;48.296;8.874;2022-08-21T09:18:54;4.93;;;2.70;;
13685;SDS011;6915;48.296;8.874;2022-08-21T09:21:31;6.22;;;2.50;;
13685;SDS011;6915;48.296;8.874;2022-08-21T09:24:08;5.93;;;2.70;;
13685;SDS011;6915;48.296;8.874;2022-08-21T09:26:50;3.17;;;2.42;;
13685;SDS011;6915;48.296;8.874;2022-08-21T09:29:24;4.10;;;2.30;;
13685;SDS011;6915;48.296;8.874;2022-08-21T09:31:54;4.80;;;2.45;;
13685;SDS011;6915;48.296;8.874;2022-08-21T09:34:26;4.63;;;2.35;;
13685;SDS011;6915;48.296;8.874;2022-08-21T09:36:54;7.00;;;2.75;;
13685;SDS011;6915;48.296;8.874;2022-08-21T09:39:23;7.03;;;2.60;;
13685;SDS011;6915;48.296;8.874;2022-08-21T09:41:54;5.97;;;2.25;;
13685;SDS011;6915;48.296;8.874;2022-08-21T09:44:24;4.85;;;2.42;;
13685;SDS011;6915;48.296;8.874;2022-08-21T09:46:53;3.78;;;2.40;;
13685;SDS011;6915;48.296;8.874;2022-08-21T09:49:28;2.88;;;2.25;;
13685;SDS011;6915;48.296;8.874;2022-08-21T09:51:57;3.28;;;2.17;;
13685;SDS011;6915;48.296;8.874;2022-08-21T09:54:26;5.63;;;2.00;;
13685;SDS011;6915;48.296;8.874;2022-08-21T09:56:58;4.55;;;2.20;;
13685;SDS011;6915;48.296;8.874;2022-08-21T10:00:09;3.50;;;2.00;;
13685;SDS011;6915;48.296;8.874;2022-08-21T10:02:42;3.25;;;2.33;;
13685;SDS011;6915;48.296;8.874;2022-08-21T10:05:15;2.75;;;2.10;;
13685;SDS011;6915;48.296;8.874;2022-08-21T10:07:44;4.28;;;1.90;;
13685;SDS011;6915;48.296;8.874;2022-08-21T10:10:14;3.70;;;1.40;;
13685;SDS011;6915;48.296;8.874;2022-08-21T10:12:47;1.92;;;1.50;;
13685;SDS011;6915;48.296;8.874;2022-08-21T10:15:22;1.45;;;1.23;;
13685;SDS011;6915;48.296;8.874;2022-08-21T10:18:06;1.75;;;1.40;;
13685;SDS011;6915;48.296;8.874;2022-08-21T10:20:43;1.50;;;1.40;;
13685;SDS011;6915;48.296;8.874;2022-08-21T10:23:20;2.28;;;1.40;;
13685;SDS011;6915;48.296;8.874;2022-08-21T10:26:02;2.15;;;1.73;;
13685;SDS011;6915;48.296;8.874;2022-08-21T10:28:37;2.78;;;1.58;;
13685;SDS011;6915;48.296;8.874;2022-08-21T10:31:18;3.88;;;2.00;;
13685;SDS011;6915;48.296;8.874;2022-08-21T10:33:53;2.38;;;1.60;;
13685;SDS011;6915;48.296;8.874;2022-08-21T10:36:32;2.03;;;1.60;;
13685;SDS011;6915;48.296;8.874;2022-08-21T10:39:06;2.65;;;1.75;;
13685;SDS011;6915;48.296;8.874;2022-08-21T10:41:45;3.10;;;1.80;;
13685;SDS011;6915;48.296;8.874;2022-08-21T10:44:28;3.17;;;1.55;;
13685;SDS011;6915;48.296;8.874;2022-08-21T10:47:04;4.15;;;1.73;;
13685;SDS011;6915;48.296;8.874;2022-08-21T10:49:37;1.98;;;1.38;;
13685;SDS011;6915;48.296;8.874;2022-08-21T10:57:37;2.85;;;1.30;;
13685;SDS011;6915;48.296;8.874;2022-08-21T11:00:10;1.70;;;1.60;;
13685;SDS011;6915;48.296;8.874;2022-08-21T11:02:41;2.60;;;1.60;;
13685;SDS011;6915;48.296;8.874;2022-08-21T11:05:13;2.28;;;1.77;;
13685;SDS011;6915;48.296;8.874;2022-08-21T11:07:47;3.30;;;1.60;;
13685;SDS011;6915;48.296;8.874;2022-08-21T11:10:19;1.85;;;1.45;;
13685;SDS011;6915;48.296;8.874;2022-08-21T11:12:51;3.55;;;1.80;;
13685;SDS011;6915;48.296;8.874;2022-08-21T11:15:29;4.05;;;1.60;;
13685;SDS011;6915;48.296;8.874;2022-08-21T11:18:07;4.00;;;1.77;;
13685;SDS011;6915;48.296;8.874;2022-08-21T11:20:43;2.10;;;1.55;;
13685;SDS011;6915;48.296;8.874;2022-08-21T11:23:18;1.77;;;1.67;;
13685;SDS011;6915;48.296;8.874;2022-08-21T11:25:52;1.45;;;1.30;;
13685;SDS011;6915;48.296;8.874;2022-08-21T11:28:24;1.92;;;1.30;;
13685;SDS011;6915;48.296;8.874;2022-08-21T11:30:58;1.83;;;1.42;;
13685;SDS011;6915;48.296;8.874;2022-08-21T11:33:47;2.90;;;1.27;;
13685;SDS011;6915;48.296;8.874;2022-08-21T11:36:24;3.42;;;1.58;;
13685;SDS011;6915;48.296;8.874;2022-08-21T11:39:00;2.42;;;1.40;;
13685;SDS011;6915;48.296;8.874;2022-08-21T11:41:38;3.17;;;1.63;;
13685;SDS011;6915;48.296;8.874;2022-08-21T11:44:13;2.67;;;1.73;;
13685;SDS011;6915;48.296;8.874;2022-08-21T11:46:47;2.33;;;1.63;;
13685;SDS011;6915;48.296;8.874;2022-08-21T11:49:28;2.45;;;1.70;;
13685;SDS011;6915;48.296;8.874;2022-08-21T11:52:03;2.13;;;1.25;;
13685;SDS011;6915;48.296;8.874;2022-08-21T11:54:39;1.48;;;1.35;;
13685;SDS011;6915;48.296;8.874;2022-08-21T11:57:13;3.60;;;1.73;;
13685;SDS011;6915;48.296;8.874;2022-08-21T11:59:45;1.90;;;1.33;;
13685;SDS011;6915;48.296;8.874;2022-08-21T12:02:18;1.98;;;1.35;;
13685;SDS011;6915;48.296;8.874;2022-08-21T12:04:48;2.53;;;1.50;;
13685;SDS011;6915;48.296;8.874;2022-08-21T12:07:28;6.47;;;1.65;;
13685;SDS011;6915;48.296;8.874;2022-08-21T12:09:59;1.73;;;1.42;;
13685;SDS011;6915;48.296;8.874;2022-08-21T12:12:30;1.80;;;1.25;;
13685;SDS011;6915;48.296;8.874;2022-08-21T12:15:07;1.55;;;1.45;;
13685;SDS011;6915;48.296;8.874;2022-08-21T12:17:52;2.13;;;1.33;;
13685;SDS011;6915;48.296;8.874;2022-08-21T12:20:24;1.95;;;1.58;;
13685;SDS011;6915;48.296;8.874;2022-08-21T12:23:03;2.15;;;1.60;;
13685;SDS011;6915;48.296;8.874;2022-08-21T12:25:38;1.58;;;1.48;;
13685;SDS011;6915;48.296;8.874;2022-08-21T12:28:07;1.85;;;1.50;;
13685;SDS011;6915;48.296;8.874;2022-08-21T12:30:38;3.13;;;1.80;;
13685;SDS011;6915;48.296;8.874;2022-08-21T12:33:17;2.35;;;1.60;;
13685;SDS011;6915;48.296;8.874;2022-08-21T12:35:48;2.03;;;1.48;;
13685;SDS011;6915;48.296;8.874;2022-08-21T12:38:17;3.70;;;1.80;;
13685;SDS011;6915;48.296;8.874;2022-08-21T12:40:50;3.13;;;1.50;;
13685;SDS011;6915;48.296;8.874;2022-08-21T12:43:21;1.90;;;1.67;;
13685;SDS011;6915;48.296;8.874;2022-08-21T12:45:53;4.78;;;1.67;;
13685;SDS011;6915;48.296;8.874;2022-08-21T12:48:22;3.03;;;1.70;;
13685;SDS011;6915;48.296;8.874;2022-08-21T12:50:54;2.95;;;1.60;;
13685;SDS011;6915;48.296;8.874;2022-08-21T12:53:26;2.30;;;1.75;;
13685;SDS011;6915;48.296;8.874;2022-08-21T12:55:57;2.40;;;1.70;;
13685;SDS011;6915;48.296;8.874;2022-08-21T12:58:29;1.83;;;1.70;;
13685;SDS011;6915;48.296;8.874;2022-08-21T13:00:58;1.77;;;1.33;;
13685;SDS011;6915;48.296;8.874;2022-08-21T13:03:28;2.47;;;1.90;;
13685;SDS011;6915;48.296;8.874;2022-08-21T13:05:56;2.15;;;1.75;;
13685;SDS011;6915;48.296;8.874;2022-08-21T13:08:25;3.10;;;1.75;;
13685;SDS011;6915;48.296;8.874;2022-08-21T13:10:59;2.75;;;1.60;;
13685;SDS011;6915;48.296;8.874;2022-08-21T13:13:28;3.15;;;1.65;;
13685;SDS011;6915;48.296;8.874;2022-08-21T13:15:59;2.10;;;1.30;;
13685;SDS011;6915;48.296;8.874;2022-08-21T13:18:30;3.08;;;1.75;;
13685;SDS011;6915;48.296;8.874;2022-08-21T13:21:03;1.92;;;1.52;;
13685;SDS011;6915;48.296;8.874;2022-08-21T13:23:31;3.28;;;1.70;;
13685;SDS011;6915;48.296;8.874;2022-08-21T13:26:01;2.92;;;1.65;;
13685;SDS011;6915;48.296;8.874;2022-08-21T13:28:38;3.80;;;1.70;;
13685;SDS011;6915;48.296;8.874;2022-08-21T13:31:06;3.75;;;1.73;;
13685;SDS011;6915;48.296;8.874;2022-08-21T13:33:36;1.80;;;1.50;;
13685;SDS011;6915;48.296;8.874;2022-08-21T13:36:07;2.22;;;1.65;;
13685;SDS011;6915;48.296;8.874;2022-08-21T13:38:38;2.22;;;1.50;;
13685;SDS011;6915;48.296;8.874;2022-08-21T13:41:10;3.42;;;1.58;;
13685;SDS011;6915;48.296;8.874;2022-08-21T13:43:48;1.45;;;1.35;;
13685;SDS011;6915;48.296;8.874;2022-08-21T13:46:16;1.85;;;1.40;;
13685;SDS011;6915;48.296;8.874;2022-08-21T13:48:46;1.60;;;1.50;;
13685;SDS011;6915;48.296;8.874;2022-08-21T13:51:13;3.13;;;1.83;;
13685;SDS011;6915;48.296;8.874;2022-08-21T13:53:44;2.00;;;1.80;;
13685;SDS011;6915;48.296;8.874;2022-08-21T13:56:27;2.83;;;1.83;;
13685;SDS011;6915;48.296;8.874;2022-08-21T13:58:57;1.88;;;1.70;;
13685;SDS011;6915;48.296;8.874;2022-08-21T14:01:27;2.47;;;1.98;;
13685;SDS011;6915;48.296;8.874;2022-08-21T14:03:57;1.70;;;1.60;;
13685;SDS011;6915;48.296;8.874;2022-08-21T14:06:32;1.92;;;1.70;;
13685;SDS011;6915;48.296;8.874;2022-08-21T14:09:03;3.50;;;1.77;;
13685;SDS011;6915;48.296;8.874;2022-08-21T14:11:37;4.63;;;1.85;;
13685;SDS011;6915;48.296;8.874;2022-08-21T14:14:05;3.05;;;1.92;;
13685;SDS011;6915;48.296;8.874;2022-08-21T14:16:43;3.15;;;1.67;;
13685;SDS011;6915;48.296;8.874;2022-08-21T14:19:15;4.50;;;1.80;;
13685;SDS011;6915;48.296;8.874;2022-08-21T14:21:45;1.90;;;1.70;;
13685;SDS011;6915;48.296;8.874;2022-08-21T14:24:14;3.03;;;1.70;;
13685;SDS011;6915;48.296;8.874;2022-08-21T14:26:54;1.83;;;1.58;;
13685;SDS011;6915;48.296;8.874;2022-08-21T14:29:24;2.30;;;1.63;;
13685;SDS011;6915;48.296;8.874;2022-08-21T14:31:53;1.77;;;1.67;;
13685;SDS011;6915;48.296;8.874;2022-08-21T14:34:21;2.85;;;1.40;;
13685;SDS011;6915;48.296;8.874;2022-08-21T14:36:50;2.63;;;1.40;;
13685;SDS011;6915;48.296;8.874;2022-08-21T14:39:17;2.15;;;1.55;;
13685;SDS011;6915;48.296;8.874;2022-08-21T14:41:44;3.42;;;1.90;;
13685;SDS011;6915;48.296;8.874;2022-08-21T14:44:15;1.90;;;1.65;;
13685;SDS011;6915;48.296;8.874;2022-08-21T14:46:43;1.77;;;1.67;;
13685;SDS011;6915;48.296;8.874;2022-08-21T14:49:10;2.40;;;1.70;;
13685;SDS011;6915;48.296;8.874;2022-08-21T14:51:37;3.00;;;1.90;;
13685;SDS011;6915;48.296;8.874;2022-08-21T14:54:05;2.00;;;1.63;;
13685;SDS011;6915;48.296;8.874;2022-08-21T14:56:32;2.90;;;1.70;;
13685;SDS011;6915;48.296;8.874;2022-08-21T14:59:02;2.53;;;1.92;;
13685;SDS011;6915;48.296;8.874;2022-08-21T15:01:32;1.92;;;1.77;;
13685;SDS011;6915;48.296;8.874;2022-08-21T15:04:02;1.80;;;1.70;;
13685;SDS011;6915;48.296;8.874;2022-08-21T15:06:30;2.47;;;1.63;;
13685;SDS011;6915;48.296;8.874;2022-08-21T15:08:57;2.40;;;1.73;;
13685;SDS011;6915;48.296;8.874;2022-08-21T15:11:24;2.97;;;1.98;;
13685;SDS011;6915;48.296;8.874;2022-08-21T15:13:53;2.38;;;2.00;;
13685;SDS011;6915;48.296;8.874;2022-08-21T15:16:22;2.15;;;1.92;;
13685;SDS011;6915;48.296;8.874;2022-08-21T15:18:52;2.20;;;1.67;;
13685;SDS011;6915;48.296;8.874;2022-08-21T15:21:19;2.35;;;1.70;;
13685;SDS011;6915;48.296;8.874;2022-08-21T15:23:46;1.98;;;1.60;;